Time;durP1;ratioP1;P1;durP2;ratioP2;P2;SDS_P1;SDS_P2;PMS_P1;PMS_P2;Temp;Humidity;BMP_temperature;BMP_pressure;BME280_temperature;BME280_humidity;BME280_pressure;Samples;Min_cycle;Max_cycle;Signal;HPM_P1;HPM_P2
2023/03/07 00:01:39;;;;;;;23.25;10.93;;;;;;;;;;4954893;28;20750;-68
2023/03/07 00:04:05;;;;;;;19.15;9.93;;;;;;;;;;4953356;28;20033;-69
2023/03/07 00:06:31;;;;;;;16.77;10.18;;;;;;;;;;4955287;28;20460;-68
2023/03/07 00:09:01;;;;;;;16.63;9.68;;;;;;;;;;4955864;28;20035;-66
2023/03/07 00:11:28;;;;;;;15.57;9.73;;;;;;;;;;4952510;28;20046;-68
2023/03/07 00:13:54;;;;;;;18.95;9.70;;;;;;;;;;4955954;28;20034;-68
2023/03/07 00:16:21;;;;;;;16.02;9.23;;;;;;;;;;4953084;28;20039;-67
2023/03/07 00:18:48;;;;;;;14.98;10.15;;;;;;;;;;4970507;28;20146;-67
2023/03/07 00:21:15;;;;;;;16.88;11.20;;;;;;;;;;4953103;28;20136;-67
2023/03/07 00:23:43;;;;;;;18.52;11.10;;;;;;;;;;4958363;28;20095;-67
2023/03/07 00:26:16;;;;;;;18.70;10.82;;;;;;;;;;4955494;28;20389;-67
2023/03/07 00:28:43;;;;;;;18.52;10.82;;;;;;;;;;4952188;28;20030;-68
2023/03/07 00:31:09;;;;;;;;;;;;;;;;;;4970511;28;20019;-68
2023/03/07 00:33:35;;;;;;;16.52;9.43;;;;;;;;;;4948534;28;20292;-67
2023/03/07 00:36:01;;;;;;;;;;;;;;;;;;4956263;28;20072;-67
2023/03/07 00:38:29;;;;;;;16.67;10.07;;;;;;;;;;4956246;28;20434;-66
2023/03/07 00:40:56;;;;;;;14.80;9.30;;;;;;;;;;4958250;28;20235;-67
2023/03/07 00:43:22;;;;;;;14.80;9.45;;;;;;;;;;4952505;28;20073;-67
2023/03/07 00:45:48;;;;;;;16.23;9.75;;;;;;;;;;4954359;28;20153;-67
2023/03/07 00:48:14;;;;;;;16.58;11.30;;;;;;;;;;4949095;28;20031;-67
2023/03/07 00:50:40;;;;;;;15.20;9.55;;;;;;;;;;4952308;28;20038;-67
2023/03/07 00:53:07;;;;;;;19.77;9.57;;;;;;;;;;4954141;28;20054;-67
2023/03/07 00:55:33;;;;;;;13.25;8.25;;;;;;;;;;4951134;28;20652;-67
2023/03/07 00:58:00;;;;;;;15.70;8.55;;;;;;;;;;4969248;28;20034;-67
2023/03/07 01:00:26;;;;;;;15.95;8.60;;;;;;;;;;4949080;28;20093;-67
2023/03/07 01:02:52;;;;;;;13.30;8.10;;;;;;;;;;4953549;28;20034;-67
2023/03/07 01:05:18;;;;;;;15.20;7.68;;;;;;;;;;4956021;28;20231;-67
2023/03/07 01:07:44;;;;;;;15.02;8.13;;;;;;;;;;4956859;28;20137;-67
2023/03/07 01:10:10;;;;;;;14.65;7.45;;;;;;;;;;4955517;28;20035;-67
2023/03/07 01:12:37;;;;;;;13.43;7.30;;;;;;;;;;4952309;28;20117;-67
2023/03/07 01:15:04;;;;;;;12.43;6.50;;;;;;;;;;4970978;28;20145;-67
2023/03/07 01:17:30;;;;;;;12.82;6.25;;;;;;;;;;4964375;28;20041;-67
2023/03/07 01:19:56;;;;;;;11.77;6.85;;;;;;;;;;4957020;28;20035;-67
2023/03/07 01:22:22;;;;;;;14.13;6.15;;;;;;;;;;4956185;28;20036;-67
2023/03/07 01:24:48;;;;;;;12.65;5.82;;;;;;;;;;4960640;28;20041;-66
2023/03/07 01:27:14;;;;;;;9.73;4.85;;;;;;;;;;4954311;28;20126;-67
2023/03/07 01:29:41;;;;;;;13.75;5.18;;;;;;;;;;4954664;28;20450;-66
2023/03/07 01:32:07;;;;;;;10.25;4.85;;;;;;;;;;4957535;28;20031;-67
2023/03/07 01:34:33;;;;;;;10.05;4.70;;;;;;;;;;4958556;28;20042;-66
2023/03/07 01:36:59;;;;;;;11.82;4.68;;;;;;;;;;4957517;28;20027;-67
2023/03/07 01:39:25;;;;;;;11.15;4.88;;;;;;;;;;4958413;28;20269;-66
2023/03/07 01:41:52;;;;;;;11.18;4.95;;;;;;;;;;4961764;28;20134;-67
2023/03/07 01:44:23;;;;;;;12.65;4.57;;;;;;;;;;4956381;28;20421;-67
2023/03/07 01:46:52;;;;;;;13.00;4.63;;;;;;;;;;4957499;28;20129;-67
2023/03/07 01:49:21;;;;;;;10.88;4.85;;;;;;;;;;4949850;28;20257;-66
2023/03/07 01:52:07;;;;;;;10.82;4.88;;;;;;;;;;4954670;28;20444;-67
2023/03/07 01:54:35;;;;;;;10.80;4.35;;;;;;;;;;4954926;28;20198;-67
2023/03/07 01:57:03;;;;;;;9.18;4.15;;;;;;;;;;4961613;28;20030;-66
2023/03/07 01:59:31;;;;;;;10.57;4.38;;;;;;;;;;4957630;28;20871;-67
2023/03/07 02:01:59;;;;;;;10.77;4.28;;;;;;;;;;4962849;28;20088;-67
2023/03/07 02:04:31;;;;;;;14.27;4.60;;;;;;;;;;4953723;28;20038;-67
2023/03/07 02:06:59;;;;;;;12.68;4.45;;;;;;;;;;4957761;28;20327;-66
2023/03/07 02:09:26;;;;;;;9.18;4.10;;;;;;;;;;4957725;28;20042;-66
2023/03/07 02:11:55;;;;;;;13.02;4.28;;;;;;;;;;4975909;28;20114;-66
2023/03/07 02:14:21;;;;;;;10.77;4.07;;;;;;;;;;4971207;28;20039;-66
2023/03/07 02:16:48;;;;;;;10.55;4.10;;;;;;;;;;4960624;28;20034;-66
2023/03/07 02:19:25;;;;;;;8.65;3.80;;;;;;;;;;4956160;28;20163;-66
2023/03/07 02:21:57;;;;;;;9.55;4.22;;;;;;;;;;4961150;28;20022;-67
2023/03/07 02:24:31;;;;;;;9.13;3.63;;;;;;;;;;4955641;28;20519;-66
2023/03/07 02:26:57;;;;;;;9.68;3.45;;;;;;;;;;4960145;28;20384;-67
2023/03/07 02:29:23;;;;;;;12.55;3.70;;;;;;;;;;4956572;28;20137;-66
2023/03/07 02:31:50;;;;;;;10.07;3.45;;;;;;;;;;4961170;28;20041;-67
2023/03/07 02:34:16;;;;;;;;;;;;;;;;;;4956659;28;20045;-67
2023/03/07 02:36:42;;;;;;;10.57;3.83;;;;;;;;;;4959183;28;20252;-66
2023/03/07 02:39:09;;;;;;;8.88;3.33;;;;;;;;;;4960907;28;20054;-67
2023/03/07 02:41:37;;;;;;;10.30;3.15;;;;;;;;;;4952892;28;20351;-66
2023/03/07 02:44:04;;;;;;;11.07;3.53;;;;;;;;;;4958263;28;20022;-67
2023/03/07 02:46:30;;;;;;;10.18;3.45;;;;;;;;;;4954412;28;20181;-67
2023/03/07 02:48:56;;;;;;;8.95;3.33;;;;;;;;;;4960388;28;20159;-67
2023/03/07 02:51:22;;;;;;;12.45;3.83;;;;;;;;;;4953303;28;20042;-68
2023/03/07 02:53:48;;;;;;;10.75;3.20;;;;;;;;;;4960168;28;20027;-67
2023/03/07 02:56:14;;;;;;;12.93;3.55;;;;;;;;;;4953716;28;20030;-67
2023/03/07 02:58:40;;;;;;;9.07;3.58;;;;;;;;;;4959410;28;20153;-67
2023/03/07 03:01:07;;;;;;;8.60;3.60;;;;;;;;;;4956517;28;20828;-66
2023/03/07 03:03:33;;;;;;;9.98;3.55;;;;;;;;;;4953691;28;20837;-67
2023/03/07 03:05:59;;;;;;;;;;;;;;;;;;4957837;28;20141;-66
2023/03/07 03:08:25;;;;;;;11.00;3.58;;;;;;;;;;4953976;28;19971;-67
2023/03/07 03:10:53;;;;;;;11.60;3.63;;;;;;;;;;4957836;28;20521;-67
2023/03/07 03:13:19;;;;;;;8.95;3.42;;;;;;;;;;4967059;28;20035;-67
2023/03/07 03:15:45;;;;;;;9.95;3.55;;;;;;;;;;4959281;28;20639;-66
2023/03/07 03:18:11;;;;;;;10.95;3.33;;;;;;;;;;4959889;28;20575;-66
2023/03/07 03:20:43;;;;;;;9.38;3.25;;;;;;;;;;4960382;28;20113;-66
2023/03/07 03:23:10;;;;;;;10.25;3.70;;;;;;;;;;4955837;28;20455;-67
2023/03/07 03:25:36;;;;;;;9.25;3.47;;;;;;;;;;4958086;28;20026;-67
2023/03/07 03:28:03;;;;;;;7.30;2.75;;;;;;;;;;4957044;28;20033;-67
2023/03/07 03:30:31;;;;;;;8.38;3.40;;;;;;;;;;4955203;28;20113;-67
2023/03/07 03:32:58;;;;;;;9.32;3.53;;;;;;;;;;4958361;28;20101;-67
2023/03/07 03:35:24;;;;;;;10.48;3.65;;;;;;;;;;4958000;28;20530;-67
2023/03/07 03:37:50;;;;;;;11.65;4.00;;;;;;;;;;4957619;28;20499;-66
2023/03/07 03:40:16;;;;;;;9.63;3.50;;;;;;;;;;4972700;28;20479;-66
2023/03/07 03:42:43;;;;;;;11.38;3.60;;;;;;;;;;4957659;28;20168;-66
2023/03/07 03:45:10;;;;;;;9.07;3.10;;;;;;;;;;4957971;28;20275;-66
2023/03/07 03:47:36;;;;;;;10.85;3.58;;;;;;;;;;4955352;28;20026;-66
2023/03/07 03:50:02;;;;;;;;;;;;;;;;;;4959175;28;20034;-66
2023/03/07 03:52:28;;;;;;;11.45;3.90;;;;;;;;;;4954552;28;20441;-67
2023/03/07 03:54:55;;;;;;;8.70;3.00;;;;;;;;;;4960441;28;20034;-66
2023/03/07 03:57:21;;;;;;;10.02;3.15;;;;;;;;;;4955071;28;20118;-66
2023/03/07 03:59:47;;;;;;;10.45;3.15;;;;;;;;;;4960491;28;20037;-66
2023/03/07 04:02:13;;;;;;;10.18;3.50;;;;;;;;;;4953898;28;20431;-67
2023/03/07 04:04:39;;;;;;;11.88;3.65;;;;;;;;;;4957698;28;20453;-66
2023/03/07 04:07:05;;;;;;;10.32;3.60;;;;;;;;;;4955718;28;20145;-67
2023/03/07 04:09:32;;;;;;;10.30;3.90;;;;;;;;;;4954089;28;20160;-67
2023/03/07 04:11:58;;;;;;;14.07;3.83;;;;;;;;;;4955089;28;20034;-67
2023/03/07 04:14:24;;;;;;;13.15;4.00;;;;;;;;;;4955168;28;20259;-67
2023/03/07 04:16:50;;;;;;;11.05;3.75;;;;;;;;;;4953855;28;20030;-66
2023/03/07 04:19:16;;;;;;;10.95;3.97;;;;;;;;;;4947042;28;20762;-66
2023/03/07 04:21:43;;;;;;;10.10;3.67;;;;;;;;;;4958767;28;20026;-65
2023/03/07 04:24:10;;;;;;;10.95;4.18;;;;;;;;;;4956774;28;20146;-66
2023/03/07 04:26:36;;;;;;;14.25;4.10;;;;;;;;;;4952607;28;20035;-67
2023/03/07 04:29:03;;;;;;;10.25;4.20;;;;;;;;;;4956483;28;20122;-68
2023/03/07 04:31:29;;;;;;;11.15;4.18;;;;;;;;;;4955877;28;20065;-68
2023/03/07 04:33:55;;;;;;;;;;;;;;;;;;4958530;28;20035;-67
2023/03/07 04:36:22;;;;;;;10.23;4.10;;;;;;;;;;4958626;28;19925;-68
2023/03/07 04:38:49;;;;;;;14.13;4.28;;;;;;;;;;4958538;28;20030;-68
2023/03/07 04:41:15;;;;;;;;;;;;;;;;;;4958801;28;20192;-67
2023/03/07 04:43:41;;;;;;;13.85;4.40;;;;;;;;;;4972367;28;20683;-69
2023/03/07 04:46:08;;;;;;;12.27;4.55;;;;;;;;;;4957646;28;20081;-68
2023/03/07 04:48:34;;;;;;;;;;;;;;;;;;4969576;28;20093;-68
2023/03/07 04:51:00;;;;;;;14.88;4.68;;;;;;;;;;4956291;28;19937;-68
2023/03/07 04:53:26;;;;;;;12.57;4.88;;;;;;;;;;4972072;28;20060;-68
2023/03/07 04:56:02;;;;;;;10.90;4.88;;;;;;;;;;4954622;28;20027;-68
2023/03/07 04:58:29;;;;;;;10.10;4.60;;;;;;;;;;4966084;28;20069;-67
2023/03/07 05:00:55;;;;;;;11.95;4.43;;;;;;;;;;4955598;28;20034;-68
2023/03/07 05:03:22;;;;;;;13.25;5.18;;;;;;;;;;4953699;28;20026;-67
2023/03/07 05:05:48;;;;;;;14.48;5.45;;;;;;;;;;4962032;28;20493;-67
2023/03/07 05:08:15;;;;;;;11.75;5.30;;;;;;;;;;4955584;28;20022;-68
2023/03/07 05:10:41;;;;;;;11.68;4.88;;;;;;;;;;4955121;28;20027;-67
2023/03/07 05:13:07;;;;;;;12.25;4.60;;;;;;;;;;4956168;28;20377;-68
2023/03/07 05:15:33;;;;;;;;;;;;;;;;;;4955332;28;20037;-68
2023/03/07 05:17:59;;;;;;;11.57;5.00;;;;;;;;;;4972413;28;20400;-68
2023/03/07 05:20:26;;;;;;;13.27;5.55;;;;;;;;;;4954019;28;20149;-67
2023/03/07 05:22:52;;;;;;;14.40;4.90;;;;;;;;;;4957500;28;20045;-67
2023/03/07 05:25:18;;;;;;;13.48;5.07;;;;;;;;;;4951756;28;20295;-67
2023/03/07 05:27:44;;;;;;;13.73;5.18;;;;;;;;;;4957288;28;20027;-67
2023/03/07 05:30:11;;;;;;;13.13;5.65;;;;;;;;;;4961187;28;20552;-67
2023/03/07 05:32:37;;;;;;;15.13;6.15;;;;;;;;;;4960585;28;20034;-67
2023/03/07 05:35:04;;;;;;;15.50;5.55;;;;;;;;;;4963553;28;20348;-67
2023/03/07 05:37:30;;;;;;;14.57;5.22;;;;;;;;;;4956654;28;20034;-67
2023/03/07 05:39:56;;;;;;;14.75;6.35;;;;;;;;;;4959900;28;20045;-67
2023/03/07 05:42:22;;;;;;;13.00;6.35;;;;;;;;;;4958274;28;20073;-67
2023/03/07 05:44:48;;;;;;;13.32;6.43;;;;;;;;;;4958843;28;20074;-67
2023/03/07 05:47:15;;;;;;;17.75;6.18;;;;;;;;;;4958212;28;20113;-67
2023/03/07 05:49:41;;;;;;;15.07;5.75;;;;;;;;;;4959736;28;20030;-67
2023/03/07 05:52:07;;;;;;;13.95;6.40;;;;;;;;;;4962558;28;20133;-69
2023/03/07 05:54:33;;;;;;;12.15;6.13;;;;;;;;;;4955614;28;20141;-67
2023/03/07 05:56:59;;;;;;;16.20;6.60;;;;;;;;;;4958913;28;20132;-67
2023/03/07 05:59:25;;;;;;;13.68;6.25;;;;;;;;;;4956088;28;20018;-67
2023/03/07 06:01:51;;;;;;;17.05;6.80;;;;;;;;;;4975965;28;20049;-67
2023/03/07 06:04:18;;;;;;;16.55;7.00;;;;;;;;;;4955716;28;20041;-68
2023/03/07 06:06:44;;;;;;;14.55;6.07;;;;;;;;;;4975216;28;20030;-67
2023/03/07 06:09:10;;;;;;;14.30;5.82;;;;;;;;;;4975634;28;20477;-67
2023/03/07 06:11:36;;;;;;;15.63;6.50;;;;;;;;;;4958479;28;20026;-68
2023/03/07 06:14:02;;;;;;;22.67;6.68;;;;;;;;;;4959344;28;20435;-67
2023/03/07 06:16:28;;;;;;;14.32;6.50;;;;;;;;;;4959368;28;20796;-68
2023/03/07 06:18:54;;;;;;;18.08;6.38;;;;;;;;;;4958764;28;20034;-67
2023/03/07 06:21:21;;;;;;;18.63;6.65;;;;;;;;;;4971950;28;20444;-67
2023/03/07 06:23:47;;;;;;;16.73;6.30;;;;;;;;;;4961560;28;20135;-67
2023/03/07 06:26:13;;;;;;;14.30;6.22;;;;;;;;;;4958512;28;20035;-67
2023/03/07 06:28:40;;;;;;;17.52;7.30;;;;;;;;;;4957419;28;20460;-66
2023/03/07 06:31:14;;;;;;;18.27;7.00;;;;;;;;;;4959740;28;20673;-67
2023/03/07 06:33:40;;;;;;;20.92;9.43;;;;;;;;;;4962793;28;20033;-67
2023/03/07 06:36:11;;;;;;;18.00;8.55;;;;;;;;;;4956836;28;20464;-67
2023/03/07 06:38:38;;;;;;;24.58;8.80;;;;;;;;;;4957415;28;20023;-66
2023/03/07 06:41:04;;;;;;;26.60;8.35;;;;;;;;;;4957054;28;20065;-67
2023/03/07 06:43:30;;;;;;;18.25;9.13;;;;;;;;;;4955084;28;20110;-68
2023/03/07 06:45:57;;;;;;;19.55;9.10;;;;;;;;;;4951743;28;20273;-68
2023/03/07 06:48:23;;;;;;;17.55;8.65;;;;;;;;;;4953643;28;20062;-66
2023/03/07 06:50:49;;;;;;;26.20;9.60;;;;;;;;;;4957196;28;20183;-68
2023/03/07 06:53:15;;;;;;;21.30;8.82;;;;;;;;;;4972676;28;20187;-68
2023/03/07 06:55:41;;;;;;;17.85;7.03;;;;;;;;;;4960726;28;20483;-68
2023/03/07 06:58:08;;;;;;;20.85;6.45;;;;;;;;;;4958293;28;20424;-68
2023/03/07 07:00:34;;;;;;;16.73;6.60;;;;;;;;;;4970271;28;20031;-67
2023/03/07 07:03:00;;;;;;;23.40;7.75;;;;;;;;;;4957649;28;20077;-68
2023/03/07 07:05:27;;;;;;;19.40;7.65;;;;;;;;;;4961216;28;20190;-67
2023/03/07 07:07:53;;;;;;;;;;;;;;;;;;4963162;28;20136;-68
2023/03/07 07:10:19;;;;;;;19.50;7.30;;;;;;;;;;4968919;28;20366;-68
2023/03/07 07:12:45;;;;;;;15.68;6.72;;;;;;;;;;4961132;28;20029;-67
2023/03/07 07:15:11;;;;;;;15.07;7.00;;;;;;;;;;4974950;28;20038;-67
2023/03/07 07:17:37;;;;;;;18.27;8.60;;;;;;;;;;4957759;28;20441;-67
2023/03/07 07:20:04;;;;;;;20.25;8.27;;;;;;;;;;4960551;28;20037;-69
2023/03/07 07:22:31;;;;;;;17.90;7.15;;;;;;;;;;4954925;28;20144;-67
2023/03/07 07:24:57;;;;;;;19.80;6.78;;;;;;;;;;4953636;28;20044;-66
2023/03/07 07:27:23;;;;;;;17.70;6.60;;;;;;;;;;4968295;28;20109;-69
2023/03/07 07:29:51;;;;;;;13.65;6.15;;;;;;;;;;4962133;28;20080;-68
2023/03/07 07:32:17;;;;;;;14.52;6.03;;;;;;;;;;4955969;28;20555;-67
2023/03/07 07:34:43;;;;;;;13.60;5.88;;;;;;;;;;4954817;28;20026;-67
2023/03/07 07:37:09;;;;;;;16.08;5.93;;;;;;;;;;4955716;28;20034;-68
2023/03/07 07:39:35;;;;;;;16.40;5.15;;;;;;;;;;4955611;28;20034;-68
2023/03/07 07:42:01;;;;;;;16.98;5.47;;;;;;;;;;4958492;28;20060;-68
2023/03/07 07:44:31;;;;;;;16.17;4.97;;;;;;;;;;4953360;28;20023;-68
2023/03/07 07:46:57;;;;;;;18.27;5.75;;;;;;;;;;4954897;28;20054;-66
2023/03/07 07:49:23;;;;;;;19.10;6.00;;;;;;;;;;4954722;28;20034;-66
2023/03/07 07:51:49;;;;;;;17.92;5.25;;;;;;;;;;4953232;28;20034;-69
2023/03/07 07:54:15;;;;;;;16.73;7.07;;;;;;;;;;4966535;28;20183;-71
2023/03/07 07:56:41;;;;;;;16.70;6.82;;;;;;;;;;4971543;28;20121;-70
2023/03/07 07:59:08;;;;;;;17.30;5.75;;;;;;;;;;4955395;28;20380;-71
2023/03/07 08:01:34;;;;;;;15.50;4.85;;;;;;;;;;4953150;28;20151;-72
2023/03/07 08:04:00;;;;;;;19.17;5.35;;;;;;;;;;4958205;28;20153;-71
2023/03/07 08:06:27;;;;;;;17.83;5.60;;;;;;;;;;4955608;28;20046;-70
2023/03/07 08:08:54;;;;;;;21.30;6.78;;;;;;;;;;4957838;28;20037;-70
2023/03/07 08:11:21;;;;;;;15.20;5.45;;;;;;;;;;4969971;28;20034;-71
2023/03/07 08:13:47;;;;;;;16.75;5.05;;;;;;;;;;4955204;28;20430;-71
2023/03/07 08:16:17;;;;;;;12.35;4.93;;;;;;;;;;4952873;28;20381;-70
2023/03/07 08:18:47;;;;;;;15.00;4.95;;;;;;;;;;4970898;28;20490;-70
2023/03/07 08:21:14;;;;;;;15.43;4.97;;;;;;;;;;4968763;28;20252;-70
2023/03/07 08:23:40;;;;;;;13.20;4.22;;;;;;;;;;4969823;28;20085;-70
2023/03/07 08:26:08;;;;;;;12.25;4.50;;;;;;;;;;4973015;28;20259;-70
2023/03/07 08:28:35;;;;;;;14.98;4.32;;;;;;;;;;4954771;28;20023;-70
2023/03/07 08:31:27;;;;;;;13.75;4.55;;;;;;;;;;4953136;28;20548;-70
2023/03/07 08:33:54;;;;;;;11.85;4.13;;;;;;;;;;4952360;28;20047;-71
2023/03/07 08:36:20;;;;;;;16.10;6.20;;;;;;;;;;4950055;28;20050;-70
2023/03/07 08:38:50;;;;;;;14.27;4.70;;;;;;;;;;4959022;28;20034;-70
2023/03/07 08:41:16;;;;;;;14.73;4.47;;;;;;;;;;4953672;28;20034;-70
2023/03/07 08:43:42;;;;;;;;;;;;;;;;;;4955658;28;20039;-70
2023/03/07 08:46:08;;;;;;;12.85;3.60;;;;;;;;;;4957258;28;20471;-70
2023/03/07 08:48:35;;;;;;;13.18;3.80;;;;;;;;;;4955166;28;20030;-70
2023/03/07 08:51:05;;;;;;;10.35;3.30;;;;;;;;;;4954894;28;20035;-71
2023/03/07 08:53:31;;;;;;;11.55;3.40;;;;;;;;;;4953348;28;20045;-71
2023/03/07 08:55:58;;;;;;;11.55;3.45;;;;;;;;;;4955572;28;20046;-73
2023/03/07 08:58:24;;;;;;;10.98;3.25;;;;;;;;;;4949896;28;20533;-70
2023/03/07 09:00:50;;;;;;;13.40;3.55;;;;;;;;;;4958551;28;20089;-73
2023/03/07 09:03:16;;;;;;;13.55;3.60;;;;;;;;;;4956693;28;20038;-71
2023/03/07 09:05:42;;;;;;;11.82;4.18;;;;;;;;;;4953503;28;20548;-70
2023/03/07 09:08:08;;;;;;;12.48;3.53;;;;;;;;;;4956042;28;20026;-70
2023/03/07 09:10:38;;;;;;;13.40;4.55;;;;;;;;;;4953860;28;20034;-72
2023/03/07 09:13:04;;;;;;;14.25;4.25;;;;;;;;;;4954748;28;20376;-70
2023/03/07 09:15:30;;;;;;;;;;;;;;;;;;4955069;28;20500;-70
2023/03/07 09:17:56;;;;;;;13.05;5.00;;;;;;;;;;4954202;28;20207;-70
2023/03/07 09:20:22;;;;;;;;;;;;;;;;;;4952051;28;20378;-70
2023/03/07 09:22:50;;;;;;;14.52;5.32;;;;;;;;;;4955547;28;20012;-70
2023/03/07 09:25:17;;;;;;;15.75;5.63;;;;;;;;;;4950181;28;20097;-71
2023/03/07 09:27:44;;;;;;;13.88;5.07;;;;;;;;;;4952275;28;20761;-70
2023/03/07 09:30:12;;;;;;;14.68;5.50;;;;;;;;;;4955620;28;20026;-69
2023/03/07 09:32:39;;;;;;;11.13;3.60;;;;;;;;;;4954767;28;20030;-70
2023/03/07 09:35:05;;;;;;;12.80;4.10;;;;;;;;;;4956017;28;20037;-70
2023/03/07 09:37:31;;;;;;;12.48;3.90;;;;;;;;;;4953634;28;20495;-70
2023/03/07 09:39:57;;;;;;;;;;;;;;;;;;4954639;28;20548;-70
2023/03/07 09:42:26;;;;;;;11.15;3.53;;;;;;;;;;4967934;28;19953;-71
2023/03/07 09:44:55;;;;;;;11.05;3.33;;;;;;;;;;4955197;28;20625;-72
2023/03/07 09:47:31;;;;;;;11.82;4.07;;;;;;;;;;4966927;28;20559;-71
2023/03/07 09:49:58;;;;;;;10.87;3.20;;;;;;;;;;4958321;28;20564;-71
2023/03/07 09:52:27;;;;;;;9.65;3.05;;;;;;;;;;4954945;28;20324;-71
2023/03/07 09:54:58;;;;;;;11.38;3.08;;;;;;;;;;4953320;28;20034;-71
2023/03/07 09:57:49;;;;;;;13.10;3.30;;;;;;;;;;4953160;28;20878;-71
2023/03/07 10:00:18;;;;;;;11.35;2.67;;;;;;;;;;4938015;28;20047;-70
2023/03/07 10:02:54;;;;;;;9.90;2.78;;;;;;;;;;4957287;28;20035;-71
2023/03/07 10:05:20;;;;;;;8.25;2.20;;;;;;;;;;4967997;28;20038;-70
2023/03/07 10:07:46;;;;;;;10.35;2.55;;;;;;;;;;4954105;28;20026;-70
2023/03/07 10:10:33;;;;;;;10.00;2.50;;;;;;;;;;4955546;28;20055;-73
2023/03/07 10:13:02;;;;;;;6.50;2.20;;;;;;;;;;4929357;28;20118;-69
2023/03/07 10:15:31;;;;;;;8.48;2.20;;;;;;;;;;4955762;28;20045;-70
2023/03/07 10:18:03;;;;;;;9.65;2.22;;;;;;;;;;4958653;28;20370;-71
2023/03/07 10:20:43;;;;;;;10.85;2.90;;;;;;;;;;4954185;28;20124;-70
2023/03/07 10:23:19;;;;;;;9.65;2.85;;;;;;;;;;4959514;28;20052;-69
2023/03/07 10:25:45;;;;;;;14.73;4.82;;;;;;;;;;4973300;28;20058;-71
2023/03/07 10:28:23;;;;;;;13.68;5.28;;;;;;;;;;4958065;28;20023;-70
2023/03/07 10:30:58;;;;;;;14.80;5.75;;;;;;;;;;4959857;28;20789;-71
2023/03/07 10:33:24;;;;;;;19.45;9.27;;;;;;;;;;4970168;28;20054;-70
2023/03/07 10:35:56;;;;;;;17.45;8.50;;;;;;;;;;4970313;28;20477;-71
2023/03/07 10:38:42;;;;;;;16.27;6.20;;;;;;;;;;4969817;28;20559;-70
2023/03/07 10:41:12;;;;;;;15.60;7.05;;;;;;;;;;4957005;28;20038;-70
2023/03/07 10:43:39;;;;;;;15.82;6.22;;;;;;;;;;4957046;28;20665;-69
2023/03/07 10:46:25;;;;;;;13.75;5.95;;;;;;;;;;4954404;28;20073;-70
2023/03/07 10:48:53;;;;;;;12.00;4.72;;;;;;;;;;4959465;28;20149;-71
2023/03/07 10:51:19;;;;;;;9.85;3.38;;;;;;;;;;4970160;28;20039;-70
2023/03/07 10:53:45;;;;;;;12.13;2.58;;;;;;;;;;4975857;28;20033;-73
2023/03/07 10:56:16;;;;;;;11.57;3.53;;;;;;;;;;4974142;28;20041;-72
2023/03/07 10:59:00;;;;;;;12.40;3.38;;;;;;;;;;4955317;28;20358;-72
2023/03/07 11:01:27;;;;;;;11.68;2.85;;;;;;;;;;4968388;28;20034;-72
2023/03/07 11:04:04;;;;;;;9.85;2.50;;;;;;;;;;4957415;28;20085;-73
2023/03/07 11:06:30;;;;;;;9.80;2.67;;;;;;;;;;4955694;28;20038;-72
2023/03/07 11:08:56;;;;;;;8.90;2.30;;;;;;;;;;4958909;28;20077;-72
2023/03/07 11:11:30;;;;;;;8.93;2.60;;;;;;;;;;4957297;28;20065;-74
2023/03/07 11:14:15;;;;;;;10.00;2.60;;;;;;;;;;4970611;28;20599;-71
2023/03/07 11:16:47;;;;;;;10.05;2.17;;;;;;;;;;4955490;28;20046;-74
2023/03/07 11:19:29;;;;;;;8.63;2.28;;;;;;;;;;4957676;28;20035;-71
2023/03/07 11:21:56;;;;;;;11.07;2.60;;;;;;;;;;4958548;28;20038;-73
2023/03/07 11:24:22;;;;;;;7.82;1.95;;;;;;;;;;4957247;28;20080;-72
2023/03/07 11:26:52;;;;;;;6.65;2.00;;;;;;;;;;4953356;28;20346;-73
2023/03/07 11:29:19;;;;;;;6.40;1.60;;;;;;;;;;4955045;28;20211;-72
2023/03/07 11:31:57;;;;;;;7.93;1.83;;;;;;;;;;4957070;28;20314;-72
2023/03/07 11:34:26;;;;;;;7.70;1.77;;;;;;;;;;4955394;28;20082;-70
2023/03/07 11:36:55;;;;;;;7.63;1.92;;;;;;;;;;4972926;28;20035;-71
2023/03/07 11:39:30;;;;;;;8.80;2.47;;;;;;;;;;4954211;28;20261;-70
2023/03/07 11:42:02;;;;;;;11.70;2.50;;;;;;;;;;4956013;28;20137;-70
2023/03/07 11:44:41;;;;;;;12.30;2.17;;;;;;;;;;4953368;28;20672;-71
2023/03/07 11:47:20;;;;;;;7.70;1.80;;;;;;;;;;4956955;28;20148;-71
2023/03/07 11:49:55;;;;;;;11.70;2.42;;;;;;;;;;4953989;28;20038;-70
2023/03/07 11:52:24;;;;;;;11.95;2.33;;;;;;;;;;4954333;28;20102;-71
2023/03/07 11:55:00;;;;;;;11.10;2.33;;;;;;;;;;4957072;28;20073;-73
2023/03/07 11:57:49;;;;;;;9.13;2.20;;;;;;;;;;4954763;28;20033;-70
2023/03/07 12:00:16;;;;;;;10.90;2.22;;;;;;;;;;4950122;28;20097;-72
2023/03/07 12:02:55;;;;;;;13.00;2.30;;;;;;;;;;4956113;28;20453;-72
2023/03/07 12:05:27;;;;;;;12.98;2.72;;;;;;;;;;4965517;28;20038;-71
2023/03/07 12:08:02;;;;;;;14.38;3.00;;;;;;;;;;4966918;28;20476;-72
2023/03/07 12:10:28;;;;;;;13.13;2.80;;;;;;;;;;4951904;28;20031;-70
2023/03/07 12:13:04;;;;;;;13.38;3.03;;;;;;;;;;4951215;28;20023;-71
2023/03/07 12:15:30;;;;;;;;;;;;;;;;;;4951097;28;20057;-70
2023/03/07 12:18:03;;;;;;;14.45;3.65;;;;;;;;;;4957687;28;20462;-70
2023/03/07 12:20:32;;;;;;;16.75;5.97;;;;;;;;;;4954876;28;20990;-70
2023/03/07 12:23:17;;;;;;;13.75;4.18;;;;;;;;;;4955251;28;20057;-71
2023/03/07 12:25:52;;;;;;;12.90;3.00;;;;;;;;;;4973123;28;20035;-70
2023/03/07 12:28:18;;;;;;;10.43;2.75;;;;;;;;;;4950630;28;20069;-71
2023/03/07 12:30:58;;;;;;;13.38;3.75;;;;;;;;;;4958654;28;20027;-72
2023/03/07 12:33:43;;;;;;;14.70;3.10;;;;;;;;;;4952697;28;20040;-71
2023/03/07 12:36:15;;;;;;;13.52;2.75;;;;;;;;;;4955071;28;20026;-72
2023/03/07 12:38:47;;;;;;;12.88;2.75;;;;;;;;;;4954810;28;20058;-69
2023/03/07 12:41:46;;;;;;;12.10;2.45;;;;;;;;;;4955410;28;20540;-70
2023/03/07 12:44:15;;;;;;;12.38;2.90;;;;;;;;;;4884383;29;20094;-70
2023/03/07 12:46:44;;;;;;;13.77;2.55;;;;;;;;;;4898684;29;20055;-70
2023/03/07 12:49:16;;;;;;;11.80;2.60;;;;;;;;;;4885801;29;20781;-72
2023/03/07 12:51:46;;;;;;;12.68;2.60;;;;;;;;;;4896301;29;20036;-71
2023/03/07 12:54:20;;;;;;;13.73;2.58;;;;;;;;;;4899972;29;20090;-73
2023/03/07 12:56:55;;;;;;;14.95;2.80;;;;;;;;;;4897531;29;20098;-70
2023/03/07 12:59:22;;;;;;;13.23;2.90;;;;;;;;;;4896537;29;20066;-69
2023/03/07 13:01:54;;;;;;;13.65;2.40;;;;;;;;;;4899700;29;20047;-71
2023/03/07 13:04:29;;;;;;;10.70;2.38;;;;;;;;;;4879753;29;20035;-70
2023/03/07 13:07:00;;;;;;;12.10;2.25;;;;;;;;;;4898821;29;20131;-71
2023/03/07 13:09:27;;;;;;;8.15;2.10;;;;;;;;;;4894910;29;20067;-70
2023/03/07 13:12:22;;;;;;;10.88;2.38;;;;;;;;;;4893319;29;20665;-71
2023/03/07 13:14:52;;;;;;;12.80;2.35;;;;;;;;;;4893382;29;20383;-70
2023/03/07 13:17:27;;;;;;;12.18;2.05;;;;;;;;;;4876517;29;20040;-70
2023/03/07 13:19:57;;;;;;;9.85;2.15;;;;;;;;;;4926605;28;20045;-70
2023/03/07 13:22:23;;;;;;;10.68;2.50;;;;;;;;;;4965674;28;21217;-72
2023/03/07 13:24:51;;;;;;;12.45;4.65;;;;;;;;;;4940595;28;20085;-71
2023/03/07 13:27:17;;;;;;;10.02;3.60;;;;;;;;;;4933505;28;20038;-71
2023/03/07 13:30:01;;;;;;;9.90;3.92;;;;;;;;;;4957311;28;20058;-70
2023/03/07 13:32:54;;;;;;;13.35;5.43;;;;;;;;;;4949950;28;20640;-71
2023/03/07 13:35:32;;;;;;;12.05;2.78;;;;;;;;;;4956453;28;20038;-72
2023/03/07 13:38:14;;;;;;;8.40;1.70;;;;;;;;;;4947105;28;20026;-71
2023/03/07 13:40:43;;;;;;;5.00;1.20;;;;;;;;;;4960190;28;20185;-70
2023/03/07 13:43:21;;;;;;;5.05;1.20;;;;;;;;;;4950795;28;20061;-70
2023/03/07 13:45:53;;;;;;;4.20;1.20;;;;;;;;;;4969212;28;20137;-70
2023/03/07 13:48:20;;;;;;;3.42;0.90;;;;;;;;;;4969255;28;20081;-70
2023/03/07 13:51:06;;;;;;;4.63;0.93;;;;;;;;;;4959577;28;20019;-70
2023/03/07 13:53:35;;;;;;;4.60;1.27;;;;;;;;;;4957921;28;20034;-71
2023/03/07 13:56:01;;;;;;;5.80;1.33;;;;;;;;;;4958158;28;20031;-71
2023/03/07 13:58:34;;;;;;;4.28;1.35;;;;;;;;;;4954228;28;20038;-71
2023/03/07 14:01:01;;;;;;;5.68;1.33;;;;;;;;;;4947875;28;20519;-71
2023/03/07 14:03:27;;;;;;;5.97;1.02;;;;;;;;;;4945025;28;20042;-71
2023/03/07 14:05:53;;;;;;;5.05;1.10;;;;;;;;;;4934775;28;20034;-72
2023/03/07 14:08:22;;;;;;;5.72;1.45;;;;;;;;;;4946603;28;20140;-70
2023/03/07 14:10:48;;;;;;;4.50;1.15;;;;;;;;;;4933489;28;20357;-69
2023/03/07 14:13:15;;;;;;;4.47;1.05;;;;;;;;;;4928015;28;20742;-71
2023/03/07 14:16:01;;;;;;;4.80;1.20;;;;;;;;;;4933844;28;20108;-70
2023/03/07 14:18:37;;;;;;;5.38;1.20;;;;;;;;;;4944466;28;20038;-70
2023/03/07 14:21:08;;;;;;;4.50;0.98;;;;;;;;;;4933935;28;20033;-71
2023/03/07 14:23:49;;;;;;;4.75;1.30;;;;;;;;;;4939098;28;20314;-74
2023/03/07 14:26:20;;;;;;;3.95;1.08;;;;;;;;;;4955039;28;20106;-72
2023/03/07 14:28:47;;;;;;;4.40;1.30;;;;;;;;;;4957249;28;20023;-72
2023/03/07 14:31:21;;;;;;;6.45;1.80;;;;;;;;;;4973407;28;20683;-69
2023/03/07 14:33:48;;;;;;;4.38;1.20;;;;;;;;;;4977051;28;20375;-70
2023/03/07 14:36:20;;;;;;;5.43;1.50;;;;;;;;;;4956898;28;20493;-71
2023/03/07 14:38:49;;;;;;;5.82;1.42;;;;;;;;;;4955221;28;20039;-71
2023/03/07 14:41:21;;;;;;;4.97;1.20;;;;;;;;;;4956392;28;20045;-71
2023/03/07 14:43:47;;;;;;;4.15;1.10;;;;;;;;;;4972127;28;20035;-70
2023/03/07 14:46:35;;;;;;;4.38;1.40;;;;;;;;;;4973176;28;20452;-73
2023/03/07 14:49:28;;;;;;;3.88;1.13;;;;;;;;;;4961915;28;20139;-73